createdAt,value
2022-08-03T05:05:07.164Z,1.63
2022-08-03T06:52:03.276Z,1.77
2022-08-03T06:57:20.279Z,1.98
2022-08-03T07:02:56.180Z,1.95
2022-08-03T07:05:37.748Z,1.58
2022-08-03T07:08:06.008Z,1.63
2022-08-03T07:10:35.092Z,1.58
2022-08-03T07:13:09.027Z,2.10
2022-08-03T07:15:55.356Z,2.10
2022-08-03T07:18:29.894Z,1.50
2022-08-03T07:23:26.144Z,1.67
2022-08-03T07:25:59.067Z,2.28
2022-08-03T07:28:31.669Z,1.83
2022-08-03T08:49:19.168Z,1.42
2022-08-03T08:52:00.478Z,1.45
2022-08-03T08:54:32.006Z,1.80
2022-08-03T08:57:33.626Z,1.42
2022-08-03T09:00:02.623Z,1.25
2022-08-03T09:02:34.963Z,1.13
2022-08-03T09:05:07.601Z,1.20
2022-08-03T09:10:12.570Z,1.13
2022-08-03T09:12:45.439Z,1.08
2022-08-03T09:15:23.338Z,1.23
2022-08-03T09:17:59.190Z,0.95
2022-08-03T09:20:28.208Z,1.40
2022-08-03T09:23:59.581Z,1.05
2022-08-03T09:26:18.288Z,0.95
2022-08-03T09:29:01.249Z,1.35
2022-08-03T09:31:36.128Z,1.58
2022-08-03T09:34:06.460Z,1.05
2022-08-03T09:36:43.899Z,1.00
2022-08-03T09:39:14.973Z,1.33
2022-08-03T09:41:43.911Z,1.02
2022-08-03T09:44:16.185Z,1.00
2022-08-03T09:46:57.666Z,1.05
2022-08-03T09:49:26.936Z,0.93
2022-08-03T09:52:33.519Z,1.10
2022-08-03T09:54:52.776Z,1.33
2022-08-03T09:57:27.462Z,1.08
2022-08-03T10:00:08.936Z,1.25
2022-08-03T10:02:37.762Z,1.05
2022-08-03T10:05:06.104Z,1.30
2022-08-03T10:07:45.948Z,1.00
2022-08-03T10:10:30.226Z,1.20
2022-08-03T10:13:00.962Z,1.25
2022-08-03T10:16:24.077Z,1.10
2022-08-03T10:18:16.783Z,1.38
2022-08-03T10:20:50.592Z,1.35
2022-08-03T10:23:21.480Z,1.08
2022-08-03T10:25:50.461Z,1.35
2022-08-03T10:28:27.244Z,1.30
2022-08-03T10:30:56.088Z,1.42
2022-08-03T10:33:49.744Z,0.98
2022-08-03T10:36:18.931Z,1.58
2022-08-03T10:41:41.891Z,1.35
2022-08-03T10:44:25.985Z,1.33
2022-08-03T10:52:31.808Z,1.27
2022-08-03T10:55:20.674Z,1.20
2022-08-03T10:57:59.474Z,1.33
2022-08-03T11:00:30.767Z,1.15
2022-08-03T11:03:13.657Z,1.30
2022-08-03T11:38:03.470Z,0.80
2022-08-03T14:14:35.269Z,2.45
2022-08-03T14:17:02.769Z,2.05
2022-08-03T14:19:30.423Z,1.98
2022-08-03T14:22:06.008Z,2.90
2022-08-03T14:24:34.433Z,2.00
2022-08-03T14:27:08.649Z,2.10
2022-08-03T14:29:36.750Z,2.20
2022-08-03T14:32:10.003Z,2.08
2022-08-03T14:34:39.813Z,2.67
2022-08-03T14:37:07.506Z,2.38
2022-08-03T14:52:58.210Z,2.30
2022-08-03T14:55:25.784Z,2.42
2022-08-03T17:49:26.978Z,2.53
2022-08-03T18:51:00.473Z,1.98
2022-08-03T18:54:01.862Z,1.85
2022-08-03T18:59:05.494Z,2.28
2022-08-03T19:01:58.128Z,2.58
2022-08-03T20:07:58.815Z,2.53
2022-08-03T20:10:26.405Z,1.80
2022-08-03T20:12:54.876Z,2.00
2022-08-03T21:53:16.636Z,1.90
2022-08-03T21:55:50.464Z,1.17
2022-08-03T21:58:18.643Z,1.52
2022-08-03T22:00:46.706Z,1.85
2022-08-03T22:03:17.436Z,2.20
2022-08-03T22:05:46.025Z,1.70
2022-08-03T22:08:16.579Z,1.35
2022-08-03T22:10:44.876Z,1.77
2022-08-03T22:13:13.794Z,1.85
2022-08-03T22:15:41.538Z,1.17
2022-08-03T22:18:09.271Z,2.38
2022-08-03T22:20:36.831Z,1.55
2022-08-03T22:23:05.781Z,1.65
2022-08-03T22:25:34.442Z,1.75
2022-08-03T22:28:04.215Z,2.80
2022-08-03T22:30:33.668Z,1.85
2022-08-03T22:33:02.333Z,2.80
2022-08-03T22:35:31.899Z,2.22
2022-08-03T22:38:12.181Z,2.08
2022-08-03T22:40:39.883Z,1.77
2022-08-03T22:43:07.911Z,1.20
2022-08-03T22:46:06.206Z,1.30
2022-08-03T22:48:23.297Z,1.65
2022-08-03T22:50:51.175Z,1.58
2022-08-03T22:53:19.543Z,1.33
2022-08-03T22:55:49.406Z,1.27
2022-08-03T22:58:17.160Z,1.20
2022-08-03T23:00:53.802Z,1.05
2022-08-03T23:03:59.667Z,0.88
2022-08-03T23:06:15.213Z,1.65
2022-08-03T23:08:45.116Z,0.70
2022-08-03T23:11:13.318Z,1.38
2022-08-03T23:13:41.013Z,1.42
2022-08-03T23:16:09.454Z,1.73
2022-08-03T23:18:40.360Z,1.00
2022-08-03T23:21:11.543Z,0.80
2022-08-03T23:23:44.289Z,1.00
2022-08-03T23:26:13.624Z,0.45
2022-08-03T23:28:43.977Z,1.10
2022-08-03T23:31:12.698Z,0.50
2022-08-03T23:33:41.725Z,1.50
2022-08-03T23:36:30.736Z,0.85
2022-08-03T23:38:58.404Z,1.10
2022-08-03T23:41:25.921Z,0.65
2022-08-03T23:43:54.358Z,1.05
2022-08-03T23:46:27.156Z,1.17
2022-08-03T23:48:56.531Z,1.00
2022-08-03T23:51:31.854Z,0.63
2022-08-03T23:54:17.932Z,0.82
2022-08-03T23:56:58.572Z,0.57
2022-08-03T23:59:32.978Z,0.77
